Hlavní strana
METAR-TAF:

METAR-TAF

Letiště :

Kirkenes, Norsko

zeměpisná šířka: 69-44N, zeměpisná délka: 029-54E, výška: 9 m

Aktuální stav počasí

Zpráva byla vytvořena před 17 minutami, v 14:20 UTC
Jihojihovýchodní vítr 11 kt
Teplota 9°C
Vlhkost vzduchu 76%
Tlak 1003 hPa
Viditelnost 10 km a více
Oblačno až skoro zataženo ve výšce 2400 ft

METAR: ENKR 241420Z 15011KT 9999 BKN024 09/05 Q1003 RMK WIND 731FT 16016KT

Čas: 16:37 (14:37 UTC)

Předpověď počasí

Zpráva byla vytvořena před 3 hodinami a 37 minutami, v 11:00 UTC
Předpověď platná od 24 v 12 UTC do 24 v 21 UTC
Jižní vítr 12 kt
Viditelnost 10 km a více
Oblačno až skoro zataženo ve výšce 2500 ft

TAF: ENKR 241100Z 2412/2421 17012KT 9999 BKN025

Stav a předpovědi počasí z více než 4 000 letišť (zprávy METAR a TAF).

Červené a žluté tečky na mapě představují dostupné meteorologické stanice.

Když kurzor umístíte na tečku, zobrazí se název stanice.

Pak kliknutím zobrazíte stav a předpověď počasí.

Chcete-li změnit mapu, kliknutím na zelené tlačítko se znaménkem +mapu přiblížíte, kliknutím na zelené tlačítko se znaménkem – mapu oddálíte a kliknutím na zelené šipky přejdete na sousední mapy.


METAR-TAF: